createdAt,value
2019-05-19T00:05:29.402Z,5.80
2019-05-19T00:16:29.282Z,6.30
2019-05-19T00:27:29.171Z,4.60
2019-05-19T00:38:29.039Z,5.60
2019-05-19T00:49:40.601Z,4.30
2019-05-19T01:00:28.795Z,4.80
2019-05-19T01:11:28.677Z,4.50
2019-05-19T01:22:28.564Z,6.80
2019-05-19T01:33:28.487Z,5.30
2019-05-19T01:44:28.307Z,7.00
2019-05-19T01:55:28.176Z,8.30
2019-05-19T02:06:28.055Z,8.20
2019-05-19T02:17:27.926Z,11.40
2019-05-19T02:28:27.801Z,13.20
2019-05-19T02:39:27.734Z,12.20
2019-05-19T02:50:27.578Z,14.60
2019-05-19T03:01:27.438Z,11.70
2019-05-19T03:12:27.322Z,11.50
2019-05-19T03:23:27.175Z,7.10
2019-05-19T03:34:27.093Z,6.90
2019-05-19T03:45:26.924Z,6.50
2019-05-19T03:56:26.811Z,7.00
2019-05-19T04:07:26.689Z,9.00
2019-05-19T04:18:26.555Z,6.60
2019-05-19T04:29:26.437Z,6.50
2019-05-19T04:40:26.313Z,9.10
2019-05-19T04:51:26.187Z,10.30
2019-05-19T05:02:26.200Z,10.50
2019-05-19T05:13:25.954Z,8.20
2019-05-19T05:24:28.598Z,8.20
2019-05-19T05:35:25.689Z,8.30
2019-05-19T05:46:25.575Z,9.40
2019-05-19T05:57:25.449Z,9.40
2019-05-19T06:08:25.328Z,8.30
2019-05-19T06:19:25.221Z,8.70
2019-05-19T06:30:25.079Z,11.60
2019-05-19T06:41:24.953Z,12.50
2019-05-19T06:52:24.832Z,9.40
2019-05-19T07:03:24.709Z,7.80
2019-05-19T07:14:24.596Z,7.50
2019-05-19T07:25:24.473Z,8.10
2019-05-19T07:36:24.352Z,7.90
2019-05-19T07:47:24.279Z,6.80
2019-05-19T07:58:24.097Z,6.00
2019-05-19T08:09:23.989Z,7.80
2019-05-19T08:20:23.906Z,7.00
2019-05-19T08:31:23.741Z,9.80
2019-05-19T08:42:23.617Z,10.40
2019-05-19T08:53:23.593Z,9.80
2019-05-19T09:04:23.392Z,7.90
2019-05-19T09:15:23.269Z,7.40
2019-05-19T09:26:23.153Z,8.20
2019-05-19T09:37:23.055Z,5.50
2019-05-19T09:48:22.891Z,7.50
2019-05-19T09:59:22.767Z,7.40
2019-05-19T10:10:22.629Z,9.20
2019-05-19T10:21:22.514Z,7.80
2019-05-19T10:32:22.388Z,9.30
2019-05-19T10:43:22.279Z,8.70
2019-05-19T10:54:22.147Z,10.60
2019-05-19T11:05:22.034Z,9.00
2019-05-19T11:16:21.947Z,9.50
2019-05-19T11:27:21.783Z,7.90
2019-05-19T11:38:21.664Z,6.50
2019-05-19T11:39:16.656Z,6.60
2019-05-19T11:40:16.651Z,7.80
2019-05-19T11:51:21.531Z,5.30
2019-05-19T12:02:21.421Z,4.70
2019-05-19T12:03:16.409Z,4.70
2019-05-19T12:04:16.389Z,6.60
2019-05-19T12:15:21.274Z,4.00
2019-05-19T12:16:16.263Z,4.30
2019-05-19T12:17:16.266Z,6.30
2019-05-19T12:28:21.145Z,4.60
2019-05-19T12:29:16.134Z,4.40
2019-05-19T12:30:16.119Z,6.70
2019-05-19T12:41:20.996Z,5.70
2019-05-19T12:42:15.997Z,6.20
2019-05-19T12:43:15.986Z,6.60
2019-05-19T12:54:20.881Z,7.50
2019-05-19T13:05:20.736Z,5.90
2019-05-19T13:16:20.615Z,6.00
2019-05-19T13:27:20.493Z,4.20
2019-05-19T13:38:20.377Z,6.10
2019-05-19T13:49:20.262Z,4.30
2019-05-19T14:00:20.133Z,4.50
2019-05-19T14:11:20.015Z,4.40
2019-05-19T14:22:19.891Z,4.00
2019-05-19T14:33:19.780Z,3.20
2019-05-19T14:44:19.649Z,3.60
2019-05-19T14:55:19.546Z,3.90
2019-05-19T15:06:19.460Z,4.60
2019-05-19T15:17:19.285Z,3.90
2019-05-19T15:28:19.184Z,3.60
2019-05-19T15:39:19.042Z,3.90
2019-05-19T15:50:18.933Z,3.50
2019-05-19T16:01:18.798Z,3.70
2019-05-19T16:12:18.725Z,3.30
2019-05-19T16:23:18.565Z,3.80
2019-05-19T16:34:18.439Z,4.00
2019-05-19T16:45:18.315Z,3.50
2019-05-19T16:56:18.208Z,3.30
2019-05-19T17:07:18.072Z,3.50
2019-05-19T17:18:18.017Z,3.30
2019-05-19T17:29:17.838Z,3.10
2019-05-19T17:40:17.708Z,2.70
2019-05-19T17:51:17.600Z,2.90
2019-05-19T18:02:17.544Z,3.80
2019-05-19T18:13:17.438Z,4.00
2019-05-19T18:24:17.216Z,3.30
2019-05-19T18:35:17.113Z,3.70
2019-05-19T18:46:16.978Z,3.10
2019-05-19T18:57:16.966Z,3.20
2019-05-19T19:08:16.746Z,3.70
2019-05-19T19:19:16.791Z,4.20
2019-05-19T19:30:16.492Z,3.60
2019-05-19T19:41:16.385Z,3.40
2019-05-19T19:52:16.262Z,3.30
2019-05-19T20:03:16.126Z,3.90
2019-05-19T20:14:16.008Z,2.70
2019-05-19T20:25:15.887Z,3.40
2019-05-19T20:36:15.765Z,3.60
2019-05-19T20:47:15.686Z,4.20
2019-05-19T20:58:15.532Z,4.70
2019-05-19T21:09:15.425Z,5.20
2019-05-19T21:20:15.318Z,4.70
2019-05-19T21:31:15.216Z,4.70
2019-05-19T21:42:15.020Z,4.90
2019-05-19T21:53:14.898Z,4.80
2019-05-19T22:04:14.814Z,5.40
2019-05-19T22:15:14.663Z,5.50
2019-05-19T22:26:14.552Z,5.90
2019-05-19T22:37:14.410Z,5.30
2019-05-19T22:48:14.283Z,5.50
2019-05-19T22:59:19.876Z,5.10
2019-05-19T23:10:14.300Z,5.10
2019-05-19T23:21:13.935Z,6.50
2019-05-19T23:32:13.846Z,6.70
2019-05-19T23:43:13.674Z,6.00
2019-05-19T23:54:13.555Z,6.30
